createdAt,value
2018-03-15T00:02:01.272Z,44.33
2018-03-15T00:04:35.591Z,44.52
2018-03-15T00:07:04.757Z,44.93
2018-03-15T00:09:34.418Z,45.08
2018-03-15T00:12:03.843Z,44.87
2018-03-15T00:14:33.219Z,45.23
2018-03-15T00:17:02.649Z,45.26
2018-03-15T00:19:32.611Z,45.15
2018-03-15T00:22:02.198Z,45.10
2018-03-15T00:24:31.117Z,45.28
2018-03-15T00:27:00.271Z,45.16
2018-03-15T00:29:30.049Z,45.14
2018-03-15T00:31:59.260Z,45.30
2018-03-15T00:34:28.882Z,45.90
2018-03-15T00:36:58.140Z,45.91
2018-03-15T00:39:27.403Z,46.19
2018-03-15T00:41:56.839Z,46.26
2018-03-15T00:44:26.476Z,46.74
2018-03-15T00:46:55.710Z,47.04
2018-03-15T00:49:24.939Z,46.31
2018-03-15T00:51:54.129Z,46.16
2018-03-15T00:54:25.455Z,46.38
2018-03-15T00:56:54.879Z,46.32
2018-03-15T00:59:24.301Z,46.35
2018-03-15T01:01:53.521Z,46.55
2018-03-15T01:04:23.047Z,46.97
2018-03-15T01:06:52.439Z,47.07
2018-03-15T01:09:21.586Z,47.35
2018-03-15T01:11:50.782Z,46.94
2018-03-15T01:14:19.818Z,46.27
2018-03-15T01:16:49.623Z,45.33
2018-03-15T01:19:19.168Z,45.21
2018-03-15T01:21:48.451Z,45.52
2018-03-15T01:24:17.572Z,45.16
2018-03-15T01:26:48.594Z,44.90
2018-03-15T01:29:17.951Z,44.54
2018-03-15T01:31:47.395Z,44.49
2018-03-15T01:34:16.699Z,44.92
2018-03-15T01:36:45.967Z,44.26
2018-03-15T01:39:15.542Z,44.69
2018-03-15T01:41:44.764Z,44.46
2018-03-15T01:44:14.106Z,44.11
2018-03-15T01:46:43.444Z,44.43
2018-03-15T01:49:12.550Z,44.82
2018-03-15T01:51:41.498Z,44.87
2018-03-15T01:54:10.617Z,44.11
2018-03-15T01:56:39.654Z,43.32
2018-03-15T01:59:09.026Z,41.78
2018-03-15T02:01:38.483Z,40.80
2018-03-15T02:04:07.561Z,40.51
2018-03-15T02:06:36.787Z,40.89
2018-03-15T02:09:06.558Z,40.16
2018-03-15T02:11:35.867Z,39.58
2018-03-15T02:14:05.147Z,38.74
2018-03-15T02:16:34.628Z,38.84
2018-03-15T02:19:04.847Z,38.70
2018-03-15T02:21:33.737Z,38.27
2018-03-15T02:24:03.051Z,37.13
2018-03-15T02:26:32.493Z,35.70
2018-03-15T02:29:02.004Z,36.06
2018-03-15T02:33:54.002Z,33.02
2018-03-15T02:36:23.757Z,33.10
2018-03-15T02:38:53.075Z,32.52
2018-03-15T02:41:22.271Z,31.65
2018-03-15T02:43:51.360Z,30.67
2018-03-15T02:46:20.912Z,30.53
2018-03-15T02:48:50.511Z,31.00
2018-03-15T02:51:20.320Z,30.11
2018-03-15T02:53:49.791Z,29.59
2018-03-15T02:56:19.041Z,28.63
2018-03-15T02:58:48.342Z,28.44
2018-03-15T03:01:18.171Z,27.46
2018-03-15T03:03:47.523Z,26.96
2018-03-15T03:06:16.954Z,27.18
2018-03-15T03:08:46.349Z,27.09
2018-03-15T03:11:15.605Z,26.01
2018-03-15T03:13:44.970Z,25.58
2018-03-15T03:16:14.328Z,24.87
2018-03-15T03:18:43.473Z,25.40
2018-03-15T03:21:12.663Z,24.53
2018-03-15T03:23:41.984Z,24.27
2018-03-15T03:26:10.840Z,23.88
2018-03-15T03:28:40.162Z,23.52
2018-03-15T03:31:10.638Z,24.29
2018-03-15T03:33:39.679Z,23.67
2018-03-15T03:36:09.049Z,23.56
2018-03-15T03:38:38.366Z,23.20
2018-03-15T03:41:07.545Z,23.30
2018-03-15T03:43:36.472Z,23.36
2018-03-15T03:46:06.030Z,22.67
2018-03-15T03:48:35.138Z,22.64
2018-03-15T03:51:04.162Z,23.39
2018-03-15T03:53:33.281Z,23.14
2018-03-15T03:56:02.190Z,22.06
2018-03-15T03:58:31.112Z,22.68
2018-03-15T04:01:00.283Z,21.91
2018-03-15T04:03:29.859Z,21.84
2018-03-15T04:05:59.482Z,21.68
2018-03-15T04:08:28.549Z,21.20
2018-03-15T04:10:57.835Z,21.08
2018-03-15T04:13:27.359Z,21.17
2018-03-15T04:15:57.341Z,21.27
2018-03-15T04:18:26.953Z,20.80
2018-03-15T04:20:56.144Z,20.89
2018-03-15T04:23:25.457Z,20.98
2018-03-15T04:25:54.953Z,21.05
2018-03-15T04:28:24.203Z,20.83
2018-03-15T04:30:53.248Z,20.95
2018-03-15T04:33:23.299Z,20.63
2018-03-15T04:35:52.702Z,21.33
2018-03-15T04:38:22.216Z,22.13
2018-03-15T04:40:51.585Z,21.59
2018-03-15T04:43:20.912Z,21.76
2018-03-15T04:45:50.057Z,21.44
2018-03-15T04:48:19.170Z,21.32
2018-03-15T04:50:48.680Z,20.69
2018-03-15T04:53:17.990Z,21.19
2018-03-15T04:55:47.170Z,21.52
2018-03-15T04:58:16.641Z,21.82
2018-03-15T05:00:46.049Z,21.55
2018-03-15T05:03:15.203Z,21.65
2018-03-15T05:05:44.481Z,21.62
2018-03-15T05:08:14.038Z,21.56
2018-03-15T05:10:43.232Z,20.83
2018-03-15T05:13:12.717Z,20.33
2018-03-15T05:15:41.930Z,21.29
2018-03-15T05:18:11.304Z,22.30
2018-03-15T05:20:40.580Z,21.69
2018-03-15T05:23:09.877Z,21.64
2018-03-15T05:25:39.176Z,21.92
2018-03-15T05:28:08.516Z,21.44
2018-03-15T05:30:37.681Z,21.73
2018-03-15T05:33:07.092Z,22.71
2018-03-15T05:35:36.650Z,23.63
2018-03-15T05:38:05.819Z,22.79
2018-03-15T05:40:35.190Z,22.74
2018-03-15T05:43:04.691Z,23.14
2018-03-15T05:45:33.938Z,23.25
2018-03-15T05:48:03.287Z,22.51
2018-03-15T05:50:33.018Z,22.15
2018-03-15T05:53:02.076Z,22.24
2018-03-15T05:55:31.066Z,21.98
2018-03-15T05:58:00.278Z,20.80
2018-03-15T06:00:29.810Z,21.23
2018-03-15T06:02:59.123Z,21.79
2018-03-15T06:05:28.709Z,21.68
2018-03-15T06:07:58.110Z,21.31
2018-03-15T06:10:27.491Z,20.83
2018-03-15T06:12:56.834Z,21.50
2018-03-15T06:15:26.307Z,21.75
2018-03-15T06:17:55.420Z,21.57
2018-03-15T06:20:24.493Z,20.56
2018-03-15T06:22:53.709Z,19.72
2018-03-15T06:25:23.128Z,21.02
2018-03-15T06:27:52.311Z,19.80
2018-03-15T07:03:53.901Z,21.31
2018-03-15T07:06:23.059Z,20.70
2018-03-15T07:08:52.079Z,21.39
2018-03-15T07:11:21.028Z,20.78
2018-03-15T07:13:49.924Z,22.67
2018-03-15T07:16:19.274Z,22.09
2018-03-15T07:18:48.273Z,22.06
2018-03-15T07:21:17.146Z,21.73
2018-03-15T07:23:46.327Z,21.10
2018-03-15T07:26:15.833Z,20.61
2018-03-15T07:28:45.294Z,20.63
2018-03-15T07:31:14.965Z,20.99
2018-03-15T07:33:44.257Z,21.03
2018-03-15T07:36:13.471Z,21.67
2018-03-15T07:38:42.297Z,21.11
2018-03-15T07:41:11.848Z,20.87
2018-03-15T07:43:41.064Z,19.95
2018-03-15T07:46:10.103Z,20.98
2018-03-15T07:48:39.193Z,20.99
2018-03-15T07:51:08.210Z,21.34
2018-03-15T07:53:37.312Z,21.65
2018-03-15T07:56:06.618Z,22.07
2018-03-15T07:58:35.656Z,22.40
2018-03-15T08:01:04.673Z,22.14
2018-03-15T08:03:34.092Z,22.42
2018-03-15T08:06:03.133Z,21.47
2018-03-15T08:08:32.203Z,22.17
2018-03-15T08:11:01.196Z,21.16
2018-03-15T08:13:30.194Z,21.39
2018-03-15T08:15:59.188Z,21.21
2018-03-15T08:18:28.247Z,21.14
2018-03-15T08:20:57.822Z,20.25
2018-03-15T08:23:26.832Z,21.43
2018-03-15T08:25:55.948Z,20.69
2018-03-15T08:28:25.488Z,20.88
2018-03-15T08:30:54.795Z,20.23
2018-03-15T08:33:24.048Z,20.05
2018-03-15T08:35:53.200Z,19.53
2018-03-15T08:38:23.238Z,19.83
2018-03-15T08:40:52.179Z,20.82
2018-03-15T08:43:21.156Z,20.70
2018-03-15T08:45:50.616Z,20.65
2018-03-15T08:48:19.697Z,20.53
2018-03-15T08:50:49.295Z,20.30
2018-03-15T08:53:18.642Z,20.25
2018-03-15T08:55:48.176Z,20.32
2018-03-15T08:58:17.289Z,20.83
2018-03-15T09:00:46.689Z,21.02
2018-03-15T09:03:16.235Z,20.62
2018-03-15T09:05:45.368Z,20.88
2018-03-15T09:08:14.848Z,20.64
2018-03-15T09:10:44.274Z,20.28
2018-03-15T09:13:13.107Z,20.36
2018-03-15T09:15:42.499Z,20.75
2018-03-15T09:18:11.398Z,20.88
2018-03-15T09:20:40.789Z,20.80
2018-03-15T09:23:09.923Z,21.39
2018-03-15T09:25:38.846Z,20.68
2018-03-15T09:28:08.140Z,21.18
2018-03-15T09:30:37.212Z,21.00
2018-03-15T09:33:07.384Z,21.60
2018-03-15T09:35:36.364Z,21.74
2018-03-15T09:38:05.438Z,21.31
2018-03-15T09:40:34.994Z,21.71
2018-03-15T09:43:04.736Z,21.59
2018-03-15T09:45:33.787Z,21.63
2018-03-15T09:48:03.039Z,21.66
2018-03-15T09:50:32.071Z,21.37
2018-03-15T09:53:01.327Z,21.53
2018-03-15T09:55:30.653Z,21.60
2018-03-15T09:57:59.977Z,21.46
2018-03-15T10:00:29.714Z,21.64
2018-03-15T10:02:59.427Z,21.99
2018-03-15T10:05:29.060Z,21.76
2018-03-15T10:07:59.287Z,21.81
2018-03-15T10:10:28.470Z,21.96
2018-03-15T10:12:58.508Z,22.18
2018-03-15T10:15:27.901Z,22.16
2018-03-15T10:17:57.798Z,22.33
2018-03-15T10:20:26.653Z,21.78
2018-03-15T10:22:56.374Z,22.40
2018-03-15T10:25:26.397Z,21.80
2018-03-15T10:27:55.382Z,21.85
2018-03-15T10:30:24.416Z,22.15
2018-03-15T10:32:59.370Z,22.25
2018-03-15T10:35:29.549Z,21.97
2018-03-15T10:37:59.611Z,22.08
2018-03-15T10:40:29.077Z,22.09
2018-03-15T10:42:59.534Z,22.04
2018-03-15T10:45:31.166Z,22.20
2018-03-15T10:48:02.779Z,21.78
2018-03-15T10:50:32.278Z,21.71
2018-03-15T10:53:01.011Z,22.03
2018-03-15T10:55:30.243Z,22.71
2018-03-15T10:57:59.554Z,23.00
2018-03-15T11:03:34.363Z,23.00
2018-03-15T11:06:08.939Z,22.70
2018-03-15T11:08:38.205Z,22.66
2018-03-15T11:11:07.589Z,22.61
2018-03-15T11:13:36.806Z,22.66
2018-03-15T11:16:06.043Z,22.80
2018-03-15T11:18:36.420Z,22.69
2018-03-15T11:21:05.744Z,23.13
2018-03-15T11:23:34.834Z,23.03
2018-03-15T11:26:04.272Z,23.04
2018-03-15T11:28:33.442Z,22.95
2018-03-15T11:31:02.650Z,22.85
2018-03-15T11:33:31.768Z,23.16
2018-03-15T11:36:01.104Z,23.41
2018-03-15T11:38:30.357Z,23.46
2018-03-15T11:40:59.568Z,23.76
2018-03-15T11:43:28.918Z,24.10
2018-03-15T11:45:58.276Z,24.49
2018-03-15T11:48:27.292Z,24.58
2018-03-15T11:50:56.788Z,24.63
2018-03-15T11:53:25.785Z,24.89
2018-03-15T11:55:54.972Z,25.32
2018-03-15T11:58:24.151Z,25.51
2018-03-15T12:00:53.510Z,25.84
2018-03-15T12:03:22.714Z,26.07
2018-03-15T12:05:51.866Z,26.26
2018-03-15T12:08:21.252Z,26.37
2018-03-15T12:10:50.522Z,26.39
2018-03-15T12:13:19.558Z,26.41
2018-03-15T12:15:49.023Z,26.31
2018-03-15T12:18:18.130Z,26.29
2018-03-15T12:20:47.419Z,26.49
2018-03-15T12:23:16.555Z,26.72
2018-03-15T12:25:45.757Z,26.78
2018-03-15T12:28:15.259Z,26.77
2018-03-15T12:30:45.300Z,27.45
2018-03-15T12:33:14.544Z,28.00
2018-03-15T12:35:43.861Z,27.40
2018-03-15T12:38:13.462Z,27.57
2018-03-15T12:40:42.281Z,27.39
2018-03-15T12:43:11.816Z,27.67
2018-03-15T12:45:40.920Z,27.98
2018-03-15T12:48:10.001Z,27.77
2018-03-15T12:50:39.196Z,28.00
2018-03-15T12:53:08.470Z,28.08
2018-03-15T12:55:37.824Z,28.00
2018-03-15T12:58:06.829Z,28.04
2018-03-15T13:00:36.209Z,28.42
2018-03-15T13:03:05.530Z,28.62
2018-03-15T13:05:34.694Z,28.54
2018-03-15T13:08:04.493Z,28.86
2018-03-15T13:10:33.504Z,29.24
2018-03-15T13:13:02.655Z,29.55
2018-03-15T13:15:31.708Z,29.83
2018-03-15T13:18:00.926Z,30.26
2018-03-15T13:20:30.016Z,30.78
2018-03-15T13:22:59.232Z,31.09
2018-03-15T13:25:28.896Z,31.14
2018-03-15T13:27:58.272Z,31.58
2018-03-15T13:30:27.250Z,31.66
2018-03-15T13:32:56.788Z,31.78
2018-03-15T13:35:25.787Z,31.65
2018-03-15T13:37:55.175Z,31.92
2018-03-15T13:40:24.281Z,31.78
2018-03-15T13:42:53.762Z,31.83
2018-03-15T13:45:22.954Z,31.93
2018-03-15T13:47:52.160Z,31.67
2018-03-15T13:50:21.554Z,31.91
2018-03-15T13:52:50.969Z,32.08
2018-03-15T13:55:20.329Z,32.15
2018-03-15T13:57:49.241Z,32.06
2018-03-15T14:00:18.501Z,32.62
2018-03-15T14:02:47.945Z,32.59
2018-03-15T14:05:17.405Z,32.44
2018-03-15T14:07:46.753Z,32.73
2018-03-15T14:10:16.416Z,32.97
2018-03-15T14:12:45.802Z,33.17
2018-03-15T14:15:15.222Z,32.97
2018-03-15T14:17:44.359Z,33.24
2018-03-15T14:20:13.587Z,33.36
2018-03-15T14:22:42.429Z,33.43
2018-03-15T14:25:11.384Z,33.60
2018-03-15T14:27:40.528Z,33.52
2018-03-15T14:30:09.845Z,33.40
2018-03-15T14:32:39.262Z,33.48
2018-03-15T14:35:08.959Z,33.85
2018-03-15T14:37:38.287Z,33.92
2018-03-15T14:40:07.677Z,34.19
2018-03-15T14:42:36.992Z,34.43
2018-03-15T14:45:06.313Z,34.77
2018-03-15T14:47:35.442Z,35.01
2018-03-15T14:50:04.526Z,35.17
2018-03-15T14:52:33.965Z,35.25
2018-03-15T14:55:03.008Z,35.50
2018-03-15T14:57:32.310Z,35.32
2018-03-15T15:00:01.225Z,35.83
2018-03-15T15:02:30.320Z,36.34
2018-03-15T15:04:59.813Z,36.34
2018-03-15T15:07:28.945Z,36.29
2018-03-15T15:09:58.063Z,36.95
2018-03-15T15:12:27.550Z,37.06
2018-03-15T15:14:56.769Z,36.97
2018-03-15T15:17:25.958Z,37.57
2018-03-15T15:19:55.283Z,37.75
2018-03-15T15:22:24.404Z,38.18
2018-03-15T15:24:53.765Z,38.04
2018-03-15T15:27:23.150Z,37.82
2018-03-15T15:29:52.286Z,37.87
2018-03-15T15:32:21.255Z,38.32
2018-03-15T15:34:50.850Z,38.42
2018-03-15T15:37:20.207Z,38.53
2018-03-15T15:39:49.643Z,38.92
2018-03-15T15:42:18.909Z,39.08
2018-03-15T15:44:47.945Z,38.80
2018-03-15T15:47:17.031Z,38.96
2018-03-15T15:49:46.736Z,38.78
2018-03-15T15:52:15.922Z,38.61
2018-03-15T15:54:45.712Z,38.49
2018-03-15T15:57:15.000Z,38.79
2018-03-15T15:59:44.241Z,39.04
2018-03-15T16:02:13.483Z,39.14
2018-03-15T16:04:42.409Z,39.18
2018-03-15T16:07:11.691Z,38.85
2018-03-15T16:09:41.082Z,39.26
2018-03-15T16:12:10.441Z,39.08
2018-03-15T16:14:40.112Z,39.46
2018-03-15T16:19:25.675Z,39.43
2018-03-15T16:24:19.357Z,39.86
2018-03-15T16:29:18.002Z,39.91
2018-03-15T16:31:47.269Z,39.95
2018-03-15T16:34:16.473Z,39.68
2018-03-15T16:36:46.280Z,39.80
2018-03-15T16:39:15.281Z,39.70
2018-03-15T16:41:44.376Z,40.44
2018-03-15T16:44:13.937Z,40.57
2018-03-15T16:46:43.145Z,40.60
2018-03-15T16:49:12.469Z,40.56
2018-03-15T16:51:41.860Z,40.62
2018-03-15T16:54:10.969Z,41.11
2018-03-15T16:56:41.999Z,41.40
2018-03-15T16:59:11.552Z,41.51
2018-03-15T17:01:40.929Z,41.70
2018-03-15T17:04:10.054Z,41.79
2018-03-15T17:06:39.140Z,42.05
2018-03-15T17:09:08.780Z,41.97
2018-03-15T17:11:37.931Z,41.95
2018-03-15T17:16:23.985Z,42.75
2018-03-15T17:18:53.047Z,42.40
2018-03-15T17:21:22.720Z,42.06
2018-03-15T17:23:52.164Z,41.72
2018-03-15T17:26:21.978Z,41.87
2018-03-15T17:28:51.999Z,41.66
2018-03-15T17:31:21.934Z,41.51
2018-03-15T17:33:52.203Z,41.41
2018-03-15T17:36:22.179Z,41.76
2018-03-15T17:38:51.516Z,41.89
2018-03-15T17:41:22.153Z,41.94
2018-03-15T17:43:51.905Z,42.03
2018-03-15T17:46:21.268Z,42.29
2018-03-15T17:48:50.864Z,42.27
2018-03-15T17:51:20.826Z,42.41
2018-03-15T17:53:49.993Z,42.60
2018-03-15T17:56:19.648Z,42.87
2018-03-15T17:58:48.866Z,43.00
2018-03-15T18:01:18.034Z,43.09
2018-03-15T18:03:47.413Z,43.10
2018-03-15T18:06:16.744Z,43.33
2018-03-15T18:08:46.394Z,43.47
2018-03-15T18:11:15.948Z,43.61
2018-03-15T18:13:45.103Z,43.85
2018-03-15T18:16:14.095Z,43.99
2018-03-15T18:18:43.255Z,44.14
2018-03-15T18:21:12.634Z,44.16
2018-03-15T18:23:41.709Z,44.03
2018-03-15T18:26:11.070Z,44.50
2018-03-15T18:28:40.412Z,44.48
2018-03-15T18:31:09.791Z,44.74
2018-03-15T18:33:39.196Z,44.92
2018-03-15T18:36:08.441Z,45.14
2018-03-15T18:38:37.993Z,45.17
2018-03-15T18:41:07.391Z,45.27
2018-03-15T18:43:36.529Z,45.40
2018-03-15T18:46:06.716Z,45.66
2018-03-15T18:48:35.864Z,45.76
2018-03-15T18:51:05.174Z,46.08
2018-03-15T18:53:34.490Z,46.17
2018-03-15T18:56:04.047Z,46.12
2018-03-15T18:58:33.113Z,46.59
2018-03-15T19:01:02.076Z,47.09
2018-03-15T19:03:32.220Z,47.15
2018-03-15T19:06:01.358Z,47.00
2018-03-15T19:08:31.888Z,47.29
2018-03-15T19:11:00.916Z,47.48
2018-03-15T19:13:29.805Z,47.46
2018-03-15T19:15:58.967Z,47.54
2018-03-15T19:18:28.405Z,47.99
2018-03-15T19:20:57.827Z,48.11
2018-03-15T19:23:27.366Z,48.13
2018-03-15T19:25:56.398Z,48.02
2018-03-15T19:28:25.646Z,48.18
2018-03-15T19:30:54.774Z,48.42
2018-03-15T19:33:24.333Z,48.34
2018-03-15T19:35:53.906Z,48.31
2018-03-15T19:38:23.129Z,48.50
2018-03-15T19:40:52.283Z,48.85
2018-03-15T19:43:21.424Z,49.22
2018-03-15T19:45:50.795Z,49.19
2018-03-15T19:48:20.041Z,49.14
2018-03-15T19:50:49.290Z,49.34
2018-03-15T19:53:18.566Z,49.36
2018-03-15T19:55:48.052Z,49.69
2018-03-15T19:58:17.495Z,49.71
2018-03-15T20:00:46.669Z,49.69
2018-03-15T20:03:15.616Z,49.62
2018-03-15T20:05:44.466Z,49.63
2018-03-15T20:08:14.080Z,49.93
2018-03-15T20:10:43.520Z,50.17
2018-03-15T20:13:12.856Z,50.08
2018-03-15T20:15:50.171Z,50.25
2018-03-15T20:18:19.369Z,50.04
2018-03-15T20:20:48.375Z,50.80
2018-03-15T20:23:23.193Z,50.51
2018-03-15T20:25:52.373Z,51.12
2018-03-15T20:28:27.514Z,51.36
2018-03-15T20:30:56.657Z,50.99
2018-03-15T20:33:31.514Z,51.39
2018-03-15T20:36:00.592Z,51.34
2018-03-15T20:38:29.767Z,51.57
2018-03-15T20:41:04.508Z,51.60
2018-03-15T20:43:35.038Z,51.62
2018-03-15T20:46:09.835Z,51.75
2018-03-15T20:48:44.491Z,51.91
2018-03-15T20:51:13.821Z,52.05
2018-03-15T20:53:43.832Z,52.31
2018-03-15T20:56:13.243Z,52.17
2018-03-15T20:58:42.355Z,52.19
2018-03-15T21:01:11.810Z,52.34
2018-03-15T21:03:41.118Z,52.76
2018-03-15T21:06:10.320Z,52.74
2018-03-15T21:08:39.722Z,52.95
2018-03-15T21:11:08.863Z,52.90
2018-03-15T21:13:38.053Z,53.11
2018-03-15T21:16:06.795Z,53.47
2018-03-15T21:18:36.188Z,53.07
2018-03-15T21:21:05.232Z,52.80
2018-03-15T21:26:29.259Z,53.13
2018-03-15T21:28:58.606Z,53.29
2018-03-15T21:31:27.910Z,53.56
2018-03-15T21:33:57.189Z,53.50
2018-03-15T21:36:26.245Z,53.64
2018-03-15T21:38:55.672Z,54.04
2018-03-15T21:41:24.935Z,54.50
2018-03-15T21:43:54.289Z,54.71
2018-03-15T21:46:23.699Z,54.62
2018-03-15T21:48:52.937Z,54.27
2018-03-15T21:51:22.060Z,54.38
2018-03-15T21:53:51.267Z,54.73
2018-03-15T21:56:20.655Z,54.32
2018-03-15T21:58:49.792Z,54.43
2018-03-15T22:01:19.067Z,54.63
2018-03-15T22:03:48.284Z,54.63
2018-03-15T22:06:17.673Z,55.04
2018-03-15T22:08:46.857Z,55.06
2018-03-15T22:11:15.975Z,55.65
2018-03-15T22:13:45.201Z,55.40
2018-03-15T22:16:14.479Z,55.32
2018-03-15T22:18:44.734Z,55.40
2018-03-15T22:21:14.168Z,55.36
2018-03-15T22:23:44.511Z,55.52
2018-03-15T22:26:13.734Z,55.44
2018-03-15T22:28:42.934Z,55.67
2018-03-15T22:31:12.546Z,55.69
2018-03-15T22:33:42.008Z,55.99
2018-03-15T22:36:11.193Z,56.23
2018-03-15T22:38:40.733Z,56.05
2018-03-15T22:41:10.031Z,56.12
2018-03-15T22:43:39.172Z,56.26
2018-03-15T22:46:08.818Z,55.78
2018-03-15T22:48:38.296Z,55.78
2018-03-15T22:51:07.263Z,56.13
2018-03-15T22:53:36.968Z,56.27
2018-03-15T22:56:06.263Z,56.39
2018-03-15T22:58:35.441Z,56.38
2018-03-15T23:01:05.260Z,56.43
2018-03-15T23:03:34.330Z,57.11
2018-03-15T23:06:03.753Z,57.34
2018-03-15T23:08:33.118Z,57.13
2018-03-15T23:11:01.943Z,57.04
2018-03-15T23:13:31.301Z,57.29
2018-03-15T23:16:00.389Z,56.99
2018-03-15T23:18:29.534Z,56.94
2018-03-15T23:20:59.375Z,57.43
2018-03-15T23:23:28.787Z,57.40
2018-03-15T23:25:58.169Z,57.82
2018-03-15T23:28:27.449Z,57.46
2018-03-15T23:30:56.808Z,57.83
2018-03-15T23:33:26.014Z,57.34
2018-03-15T23:35:55.421Z,56.25
2018-03-15T23:38:24.912Z,56.15
2018-03-15T23:40:54.170Z,55.75
2018-03-15T23:43:23.452Z,56.31
2018-03-15T23:45:52.922Z,56.04
2018-03-15T23:48:22.402Z,55.92
2018-03-15T23:50:51.771Z,55.84
2018-03-15T23:53:21.204Z,55.64
2018-03-15T23:55:50.453Z,55.79
2018-03-15T23:58:19.786Z,55.81
